Dades meteomassalio
Diari Summary for Noviembre 13, 2017 Units:  Metric    English   Both
« Previous Day
Next Day »
Diari Semanal Mensual Anual Personalitzat
  Maxima: Minima: Mijana:
Temperatura: -17.8 °C -14.4 °C -12.1 °C
Rosada: -17.8 °C -20.4 °C -17.4 °C
Humitat: Humidity % 30 % 53 %
Velocitat del vent: 0 km/h 29.8 km/h 72.9 km/h
Racha vent: 0 km/h - -
Vent:- - NW
Pressio: 0 hPa 34361.1 hPa -
Pluja: 0 mm    
Historical Graphs
 
 
Tabular Data for Noviembre 13, 2017
Time Temperature Dew Point Pressure Wind Wind Speed Wind Gust Humidity Rainfall Rate (Hourly) solar Conditions
-17.8 °C -17.8 °C 0 hPa Calm     Humidity % 0 mm SolarRadiationWatts/m^2 W/m2 Conditions
00:01 -10.1 °C -13.2 °C 34428.8 hPa North 77.4 km/h 77.4 km/h 69 % 0 mm 0.0 W/m2 CLR
00:06 -10.1 °C -13.2 °C 34428.8 hPa North 68.6 km/h 68.6 km/h 69 % 0 mm 0.0 W/m2 CLR
00:11 -10.1 °C -13.2 °C 34428.8 hPa NNW 89.3 km/h 89.3 km/h 69 % 0 mm 0.0 W/m2 CLR
00:16 -10.1 °C -13.2 °C 34428.8 hPa NNW 68.6 km/h 68.6 km/h 69 % 0 mm 0.0 W/m2 CLR
00:21 -10.1 °C -13.2 °C 34428.8 hPa NW 92.4 km/h 92.4 km/h 69 % 0 mm 0.0 W/m2 CLR
00:26 -10.1 °C -13.2 °C 34428.8 hPa NNW 89.3 km/h 89.3 km/h 69 % 0 mm 0.0 W/m2 CLR
00:31 -10.1 °C -13.2 °C 34428.8 hPa NNW 74.5 km/h 74.5 km/h 69 % 0 mm 0.0 W/m2 CLR
00:36 -10.1 °C -13.2 °C 34418.7 hPa NW 86.4 km/h 86.4 km/h 69 % 0 mm 0.0 W/m2 CLR
00:41 -10.1 °C -13.2 °C 34418.7 hPa NW 68.6 km/h 68.6 km/h 69 % 0 mm 0.0 W/m2 CLR
00:46 -10.1 °C -13.2 °C 34418.7 hPa NW 68.6 km/h 68.6 km/h 69 % 0 mm 0.0 W/m2 CLR
00:51 -10.1 °C -13.1 °C 34405.1 hPa NW 74.5 km/h 74.5 km/h 70 % 0 mm 0.0 W/m2 CLR
00:56 -10.1 °C -13.1 °C 34405.1 hPa NNW 71.5 km/h 71.5 km/h 70 % 0 mm 0.0 W/m2 CLR
01:01 -10.1 °C -13.1 °C 34405.1 hPa NNW 82.9 km/h 82.9 km/h 70 % 0 mm 0.0 W/m2 CLR
01:06 -10.4 °C -13.4 °C 34405.1 hPa NNW 89.3 km/h 89.3 km/h 69 % 0 mm 0.0 W/m2
01:11 -10.1 °C -13.2 °C 34405.1 hPa NW 110.2 km/h 110.2 km/h 69 % 0 mm 0.0 W/m2
01:16 -10.1 °C -13.2 °C 34405.1 hPa NNW 92.4 km/h 92.4 km/h 69 % 0 mm 0.0 W/m2 CLR
01:21 -10.1 °C -13.1 °C 34418.7 hPa NNW 80.5 km/h 80.5 km/h 70 % 0 mm 0.0 W/m2
01:26 -10.1 °C -13.1 °C 34405.1 hPa North 95.3 km/h 95.3 km/h 70 % 0 mm 0.0 W/m2
01:27 -10.1 °C -13.1 °C 34418.7 hPa NNW 95.3 km/h 95.3 km/h 70 % 0 mm 0.0 W/m2
01:32 -10.4 °C -13.3 °C 34418.7 hPa North 80.5 km/h 80.5 km/h 70 % 0 mm 0.0 W/m2 CLR
01:37 -10.4 °C -13.3 °C 34418.7 hPa NNW 98.3 km/h 98.3 km/h 70 % 0 mm 0.0 W/m2
01:42 -10.4 °C -13.3 °C 34418.7 hPa NNW 68.6 km/h 68.6 km/h 70 % 0 mm 0.0 W/m2 CLR
01:47 -10.4 °C -13.3 °C 34418.7 hPa NNW 59.5 km/h 59.5 km/h 70 % 0 mm 0.0 W/m2 CLR
01:52 -10.4 °C -13.3 °C 34418.7 hPa NNW 74.5 km/h 74.5 km/h 70 % 0 mm 0.0 W/m2 CLR
01:57 -10.4 °C -13.3 °C 34418.7 hPa NNW 68.6 km/h 68.6 km/h 70 % 0 mm 0.0 W/m2 CLR
02:02 -10.4 °C -13.3 °C 34418.7 hPa North 71.5 km/h 71.5 km/h 70 % 0 mm 0.0 W/m2 CLR
02:07 -10.4 °C -13.4 °C 34418.7 hPa NNE 89.3 km/h 89.3 km/h 69 % 0 mm 0.0 W/m2 CLR
02:12 -10.4 °C -13.4 °C 34418.7 hPa NNW 83.4 km/h 83.4 km/h 69 % 0 mm 0.0 W/m2 CLR
02:17 -10.4 °C -13.4 °C 34418.7 hPa NNW 59.5 km/h 59.5 km/h 69 % 0 mm 0.0 W/m2 CLR
02:22 -10.7 °C -13.9 °C 34418.7 hPa NNW 62.6 km/h 62.6 km/h 68 % 0 mm 0.0 W/m2 CLR
02:27 -10.7 °C -14 °C 34418.7 hPa North 90.6 km/h 90.6 km/h 67 % 0 mm 0.0 W/m2 CLR
02:32 -10.7 °C -14.1 °C 34418.7 hPa North 89.3 km/h 89.3 km/h 66 % 0 mm 0.0 W/m2 CLR
02:37 -10.7 °C -14.3 °C 34428.8 hPa NNW 90.6 km/h 90.6 km/h 65 % 0 mm 0.0 W/m2 CLR
02:42 -10.7 °C -14.1 °C 34418.7 hPa NNW 62.1 km/h 62.1 km/h 66 % 0 mm 0.0 W/m2 CLR
02:47 -10.7 °C -14.1 °C 34405.1 hPa NNW 80.5 km/h 80.5 km/h 66 % 0 mm 0.0 W/m2 CLR
02:52 -11 °C -14.6 °C 34405.1 hPa North 89.3 km/h 89.3 km/h 65 % 0 mm 0.0 W/m2 CLR
02:57 -11 °C -14.7 °C 34395 hPa North 68.6 km/h 68.6 km/h 64 % 0 mm 0.0 W/m2 CLR
03:02 -11 °C -14.8 °C 34395 hPa NNW 74.5 km/h 74.5 km/h 63 % 0 mm 0.0 W/m2
03:07 -11 °C -15.1 °C 34395 hPa North 104.3 km/h 104.3 km/h 61 % 0 mm 0.0 W/m2 CLR
03:12 -11.3 °C -15.4 °C 34384.8 hPa NNW 71.5 km/h 71.5 km/h 60 % 0 mm 0.0 W/m2 CLR
03:17 -11.3 °C -15.6 °C 34371.3 hPa NW 98.3 km/h 98.3 km/h 59 % 0 mm 0.0 W/m2
03:22 -11.3 °C -15.6 °C 34384.8 hPa North 128.1 km/h 128.1 km/h 59 % 0 mm 0.0 W/m2
03:27 -11.3 °C -15.6 °C 34395 hPa North 110.2 km/h 110.2 km/h 59 % 0 mm 0.0 W/m2
03:32 -11.3 °C -15.6 °C 34395 hPa North 92.4 km/h 92.4 km/h 59 % 0 mm 0.0 W/m2
03:37 -11.3 °C -15.6 °C 34395 hPa NNW 107.2 km/h 107.2 km/h 59 % 0 mm 0.0 W/m2
03:42 -11.3 °C -15.7 °C 34405.1 hPa NNE 128.1 km/h 128.1 km/h 58 % 0 mm 0.0 W/m2
03:47 -11.6 °C -16 °C 34405.1 hPa North 89.3 km/h 89.3 km/h 58 % 0 mm 0.0 W/m2
03:52 -11.6 °C -15.9 °C 34405.1 hPa North 92.4 km/h 92.4 km/h 59 % 0 mm 0.0 W/m2 CLR
03:57 -11.3 °C -15.6 °C 34405.1 hPa North 104.3 km/h 104.3 km/h 59 % 0 mm 0.0 W/m2
04:02 -11.6 °C -15.9 °C 34395 hPa NNE 122.1 km/h 122.1 km/h 59 % 0 mm 0.0 W/m2
04:07 -11.6 °C -15.9 °C 34395 hPa NNW 131 km/h 131 km/h 59 % 0 mm 0.0 W/m2
04:12 -11.6 °C -16 °C 34384.8 hPa NNW 110.2 km/h 110.2 km/h 58 % 0 mm 0.0 W/m2
04:17 -11.6 °C -16 °C 34384.8 hPa NNW 119.1 km/h 119.1 km/h 58 % 0 mm 0.0 W/m2
04:20 -11.6 °C -16 °C 34371.3 hPa NNW 125 km/h 125 km/h 58 % 0 mm 0.0 W/m2
04:22 -11.3 °C -15.9 °C 34371.3 hPa NNW 128.1 km/h 128.1 km/h 57 % 0 mm 0.0 W/m2
04:24 -11.3 °C -15.9 °C 34371.3 hPa NNW 128.1 km/h 128.1 km/h 57 % 0 mm 0.0 W/m2
04:34 -11.6 °C -16 °C 34371.3 hPa NW 125 km/h 125 km/h 58 % 0 mm 0.0 W/m2
04:39 -11.6 °C -15.9 °C 34371.3 hPa North 122.1 km/h 122.1 km/h 59 % 0 mm 0.0 W/m2
04:44 -11.6 °C -15.8 °C 34384.8 hPa North 104.3 km/h 104.3 km/h 60 % 0 mm 0.0 W/m2
04:49 -11.6 °C -15.8 °C 34384.8 hPa NNW 107.2 km/h 107.2 km/h 60 % 0 mm 0.0 W/m2
04:54 -11.6 °C -15.8 °C 34384.8 hPa NNW 121.7 km/h 121.7 km/h 60 % 0 mm 0.0 W/m2
04:59 -11.6 °C -15.8 °C 34371.3 hPa NNW 110.2 km/h 110.2 km/h 60 % 0 mm 0.0 W/m2
05:04 -11.6 °C -15.9 °C 34371.3 hPa NNW 113.1 km/h 113.1 km/h 59 % 0 mm 0.0 W/m2
05:09 -11.6 °C -15.9 °C 34361.1 hPa NNW 122.1 km/h 122.1 km/h 59 % 0 mm 0.0 W/m2
05:14 -11.6 °C -15.9 °C 34361.1 hPa NNW 126.8 km/h 126.8 km/h 59 % 0 mm 0.0 W/m2
05:19 -11.6 °C -15.9 °C 34361.1 hPa NNW 107.2 km/h 107.2 km/h 59 % 0 mm 0.0 W/m2
05:25 -11.6 °C -15.9 °C 34361.1 hPa NNW 142.9 km/h 142.9 km/h 59 % 0 mm 0.0 W/m2
05:30 -11.9 °C -16.2 °C 34361.1 hPa NNW 116.2 km/h 116.2 km/h 59 % 0 mm 0.0 W/m2
05:35 -11.9 °C -16.1 °C 34371.3 hPa NW 92.4 km/h 92.4 km/h 60 % 0 mm 0.0 W/m2
05:40 -11.9 °C -15.9 °C 34371.3 hPa North 101.2 km/h 101.2 km/h 61 % 0 mm 0.0 W/m2
05:45 -11.9 °C -15.9 °C 34371.3 hPa NW 77.7 km/h 77.7 km/h 61 % 0 mm 0.0 W/m2
05:50 -11.9 °C -15.8 °C 34384.8 hPa NNW 77.4 km/h 77.4 km/h 62 % 0 mm 0.0 W/m2 CLR
05:55 -11.9 °C -15.8 °C 34395 hPa NNW 86.4 km/h 86.4 km/h 62 % 0 mm 0.0 W/m2
06:00 -11.9 °C -15.9 °C 34395 hPa NNW 107.2 km/h 107.2 km/h 61 % 0 mm 0.0 W/m2
06:05 -11.9 °C -15.8 °C 34395 hPa NW 86.4 km/h 86.4 km/h 62 % 0 mm 0.0 W/m2 CLR
06:10 -11.9 °C -15.8 °C 34395 hPa NNW 103.6 km/h 103.6 km/h 62 % 0 mm 0.0 W/m2 CLR
06:15 -11.9 °C -15.8 °C 34395 hPa NNW 62.6 km/h 62.6 km/h 62 % 0 mm 0.0 W/m2 CLR
06:20 -12.2 °C -16.1 °C 34395 hPa NNW 95.3 km/h 95.3 km/h 62 % 0 mm 0.0 W/m2 CLR
06:25 -12.2 °C -15.9 °C 34405.1 hPa North 83.4 km/h 83.4 km/h 63 % 0 mm 0.0 W/m2 CLR
06:30 -12.2 °C -15.9 °C 34405.1 hPa NW 68.6 km/h 68.6 km/h 63 % 0 mm 0.0 W/m2 CLR
06:35 -12.2 °C -15.9 °C 34418.7 hPa NNW 101.2 km/h 101.2 km/h 63 % 0 mm 0.0 W/m2
06:40 -12.2 °C -15.9 °C 34418.7 hPa NNW 83.4 km/h 83.4 km/h 63 % 0 mm 0.0 W/m2 CLR
06:45 -12.2 °C -15.9 °C 34418.7 hPa NNW 65.5 km/h 65.5 km/h 63 % 0 mm 0.0 W/m2 CLR
06:50 -12.6 °C -16.2 °C 34418.7 hPa NNW 80.5 km/h 80.5 km/h 64 % 0 mm 0.0 W/m2 CLR
06:55 -12.6 °C -16.2 °C 34418.7 hPa NNW 77.7 km/h 77.7 km/h 64 % 0 mm 0.0 W/m2 CLR
07:00 -12.2 °C -15.8 °C 34428.8 hPa NNW 64.7 km/h 64.7 km/h 64 % 0 mm 0.0 W/m2 CLR
07:05 -12.6 °C -16.2 °C 34428.8 hPa North 77.4 km/h 77.4 km/h 64 % 0 mm 0.0 W/m2 CLR
07:10 -12.6 °C -16.2 °C 34428.8 hPa NNW 92.4 km/h 92.4 km/h 64 % 0 mm 0.0 W/m2 CLR
07:15 -12.6 °C -16.2 °C 34428.8 hPa North 65.5 km/h 65.5 km/h 64 % 0 mm 0.0 W/m2 CLR
07:20 -12.6 °C -16.2 °C 34428.8 hPa NNW 74.5 km/h 74.5 km/h 64 % 0 mm 0.0 W/m2 CLR
07:25 -12.6 °C -16.2 °C 34428.8 hPa NNW 88 km/h 88 km/h 64 % 0 mm 0.0 W/m2 CLR
07:30 -12.6 °C -16.2 °C 34428.8 hPa NNW 89.3 km/h 89.3 km/h 64 % 0 mm 0.0 W/m2 CLR
07:35 -12.6 °C -16.2 °C 34428.8 hPa NNW 89.3 km/h 89.3 km/h 64 % 0 mm 0.0 W/m2 OVC
07:40 -12.8 °C -16.4 °C 34428.8 hPa North 77.4 km/h 77.4 km/h 64 % 0 mm 0.0 W/m2 OVC
07:45 -12.8 °C -16.3 °C 34428.8 hPa North 77.7 km/h 77.7 km/h 65 % 0 mm 5.0 W/m2 OVC
07:50 -12.8 °C -16.2 °C 34442.4 hPa North 80.5 km/h 80.5 km/h 66 % 0 mm 7.0 W/m2 OVC
07:55 -12.8 °C -16.3 °C 34442.4 hPa North 71.5 km/h 71.5 km/h 65 % 0 mm 9.0 W/m2 OVC
08:00 -12.8 °C -16.3 °C 34452.6 hPa NNW 74.5 km/h 74.5 km/h 65 % 0 mm 11.0 W/m2 OVC
08:05 -12.8 °C -16.4 °C 34452.6 hPa NNW 74.5 km/h 74.5 km/h 64 % 0 mm 14.0 W/m2 OVC
08:10 -12.8 °C -16.4 °C 34452.6 hPa NNW 95.3 km/h 95.3 km/h 64 % 0 mm 16.0 W/m2 OVC
08:15 -12.8 °C -16.6 °C 34452.6 hPa North 98.3 km/h 98.3 km/h 63 % 0 mm 21.0 W/m2 OVC
08:20 -12.8 °C -16.6 °C 34462.7 hPa North 74.5 km/h 74.5 km/h 63 % 0 mm 28.0 W/m2 OVC
08:25 -12.8 °C -16.6 °C 34462.7 hPa North 74.5 km/h 74.5 km/h 63 % 0 mm 42.0 W/m2 OVC
08:30 -12.8 °C -16.6 °C 34462.7 hPa North 92.4 km/h 92.4 km/h 63 % 0 mm 54.0 W/m2
08:35 -12.8 °C -16.6 °C 34462.7 hPa NNW 83.4 km/h 83.4 km/h 63 % 0 mm 65.0 W/m2 OVC
08:40 -12.8 °C -16.6 °C 34462.7 hPa NNW 83.4 km/h 83.4 km/h 63 % 0 mm 77.0 W/m2 OVC
08:45 -12.8 °C -16.6 °C 34476.3 hPa NNW 71.5 km/h 71.5 km/h 63 % 0 mm 86.0 W/m2 OVC
08:50 -12.8 °C -16.7 °C 34486.4 hPa North 62.6 km/h 62.6 km/h 62 % 0 mm 105.0 W/m2 BKN
08:55 -12.8 °C -16.7 °C 34476.3 hPa NW 74.5 km/h 74.5 km/h 62 % 0 mm 121.0 W/m2 FEW
09:00 -12.8 °C -16.8 °C 34486.4 hPa NNW 68.6 km/h 68.6 km/h 61 % 0 mm 116.0 W/m2 CLR
09:05 -12.8 °C -16.8 °C 34486.4 hPa North 80.5 km/h 80.5 km/h 61 % 0 mm 151.0 W/m2 CLR
09:10 -12.8 °C -16.9 °C 34486.4 hPa North 93.2 km/h 93.2 km/h 60 % 0 mm 169.0 W/m2 CLR
09:15 -12.6 °C -16.8 °C 34486.4 hPa North 86.4 km/h 86.4 km/h 59 % 0 mm 160.0 W/m2 CLR
09:20 -12.6 °C -16.8 °C 34496.6 hPa NNW 75.2 km/h 75.2 km/h 59 % 0 mm 127.0 W/m2 CLR
09:25 -12.6 °C -16.9 °C 34496.6 hPa NW 68.6 km/h 68.6 km/h 58 % 0 mm 199.0 W/m2 CLR
09:30 -12.6 °C -16.9 °C 34496.6 hPa North 89.3 km/h 89.3 km/h 58 % 0 mm 232.0 W/m2 CLR
09:35 -12.6 °C -16.9 °C 34496.6 hPa NNW 80.5 km/h 80.5 km/h 58 % 0 mm 246.0 W/m2 CLR
09:40 -12.6 °C -17.1 °C 34496.6 hPa North 80.5 km/h 80.5 km/h 57 % 0 mm 258.0 W/m2 CLR
09:45 -12.6 °C -17.1 °C 34510.1 hPa NNW 83.4 km/h 83.4 km/h 57 % 0 mm 271.0 W/m2 CLR
09:50 -12.6 °C -17.1 °C 34510.1 hPa North 74.5 km/h 74.5 km/h 57 % 0 mm 281.0 W/m2 CLR
09:55 -12.6 °C -17.2 °C 34520.3 hPa North 56.6 km/h 58.3 km/h 56 % 0 mm 297.0 W/m2 CLR
10:00 -12.6 °C -17.3 °C 34520.3 hPa North 83.4 km/h 83.4 km/h 55 % 0 mm 308.0 W/m2 CLR
10:05 -12.2 °C -17.2 °C 34520.3 hPa NNW 86.4 km/h 86.4 km/h 54 % 0 mm 318.0 W/m2 CLR
10:10 -12.2 °C -17.3 °C 34520.3 hPa NNW 83.4 km/h 83.4 km/h 53 % 0 mm 329.0 W/m2 CLR
10:15 -12.2 °C -17.3 °C 34520.3 hPa NNW 68.6 km/h 68.6 km/h 53 % 0 mm 341.0 W/m2 CLR
10:20 -12.2 °C -17.4 °C 34510.1 hPa North 71.5 km/h 71.5 km/h 52 % 0 mm 352.0 W/m2 CLR
10:25 -12.2 °C -17.4 °C 34510.1 hPa NNW 62.1 km/h 62.1 km/h 52 % 0 mm 360.0 W/m2 CLR
10:30 -11.9 °C -17.3 °C 34520.3 hPa North 89.3 km/h 89.3 km/h 51 % 0 mm 373.0 W/m2 CLR
10:35 -11.9 °C -17.4 °C 34520.3 hPa North 86.4 km/h 86.4 km/h 50 % 0 mm 383.0 W/m2 CLR
10:40 -11.9 °C -17.4 °C 34520.3 hPa North 89.3 km/h 89.3 km/h 50 % 0 mm 390.0 W/m2 CLR
10:45 -11.9 °C -17.6 °C 34520.3 hPa North 80.5 km/h 80.5 km/h 49 % 0 mm 399.0 W/m2 CLR
10:55 -11.9 °C -17.8 °C 34520.3 hPa North 71.5 km/h 71.5 km/h 48 % 0 mm 420.0 W/m2 CLR
11:00 -11.6 °C -17.7 °C 34520.3 hPa NNW 56.6 km/h 56.6 km/h 47 % 0 mm 425.0 W/m2 CLR
11:05 -11.6 °C -17.7 °C 34533.8 hPa NNE 68.6 km/h 68.6 km/h 47 % 0 mm 434.0 W/m2 CLR
11:10 -11.6 °C -17.8 °C 34533.8 hPa NNE 89.3 km/h 89.3 km/h 46 % 0 mm 438.0 W/m2 CLR
11:15 -11.6 °C -17.8 °C 34533.8 hPa North 89.3 km/h 89.3 km/h 46 % 0 mm 448.0 W/m2 CLR
11:20 -11.6 °C -17.7 °C 34533.8 hPa ESE 77.4 km/h 77.4 km/h 47 % 0 mm 457.0 W/m2 CLR
11:25 -11.3 °C -17.6 °C 34533.8 hPa NNW 95.8 km/h 95.8 km/h 46 % 0 mm 462.0 W/m2 CLR
11:30 -11.3 °C -17.6 °C 34544 hPa North 89.3 km/h 89.3 km/h 46 % 0 mm 464.0 W/m2 CLR
11:35 -11.3 °C -17.7 °C 34544 hPa North 74.5 km/h 74.5 km/h 45 % 0 mm 471.0 W/m2 CLR
11:40 -11.3 °C -17.6 °C 34544 hPa North 93.2 km/h 93.2 km/h 46 % 0 mm 482.0 W/m2 CLR
11:45 -11.3 °C -17.6 °C 34544 hPa NNW 68.6 km/h 68.6 km/h 46 % 0 mm 480.0 W/m2 CLR
11:50 -11.3 °C -17.6 °C 34533.8 hPa North 83.4 km/h 83.4 km/h 46 % 0 mm 489.0 W/m2 CLR
11:55 -11.3 °C -17.7 °C 34544 hPa NW 71.5 km/h 71.5 km/h 45 % 0 mm 490.0 W/m2 CLR
12:00 -11.3 °C -17.9 °C 34544 hPa North 88 km/h 88 km/h 44 % 0 mm 496.0 W/m2 CLR
12:05 -11.3 °C -17.9 °C 34544 hPa NNW 59.5 km/h 59.5 km/h 44 % 0 mm 496.0 W/m2 CLR
12:15 -11.3 °C -18.2 °C 34544 hPa North 68.6 km/h 68.6 km/h 42 % 0 mm 504.0 W/m2 CLR
12:21 -11.3 °C -18.2 °C 34544 hPa NNW 80.5 km/h 80.5 km/h 42 % 0 mm 504.0 W/m2 CLR
12:26 -11 °C -18.2 °C 34533.8 hPa NNW 71.5 km/h 71.5 km/h 41 % 0 mm 510.0 W/m2 CLR
12:31 -11 °C -18.3 °C 34533.8 hPa NNW 74.5 km/h 74.5 km/h 40 % 0 mm 513.0 W/m2 CLR
12:36 -11 °C -18.5 °C 34533.8 hPa NNW 71.5 km/h 71.5 km/h 39 % 0 mm 508.0 W/m2 CLR
12:41 -11 °C -18.7 °C 34533.8 hPa NNW 53.6 km/h 53.6 km/h 38 % 0 mm 512.0 W/m2 CLR
12:46 -11 °C -18.9 °C 34533.8 hPa North 57 km/h 57 km/h 37 % 0 mm 513.0 W/m2 CLR
12:51 -10.7 °C -19.1 °C 34533.8 hPa NW 69.8 km/h 69.8 km/h 35 % 0 mm 512.0 W/m2 CLR
12:56 -10.7 °C -19.1 °C 34544 hPa North 72.6 km/h 72.6 km/h 35 % 0 mm 510.0 W/m2 CLR
13:02 -10.7 °C -19.1 °C 34533.8 hPa NNW 71.5 km/h 71.5 km/h 35 % 0 mm 510.0 W/m2 CLR
13:07 -10.7 °C -19.1 °C 34520.3 hPa North 67.3 km/h 67.3 km/h 35 % 0 mm 510.0 W/m2 CLR
13:12 -10.7 °C -19.1 °C 34520.3 hPa NW 59.5 km/h 59.5 km/h 35 % 0 mm 503.0 W/m2 CLR
13:17 -10.7 °C -18.8 °C 34533.8 hPa NNW 68.6 km/h 68.6 km/h 36 % 0 mm 503.0 W/m2 CLR
13:22 -10.7 °C -18.8 °C 34520.3 hPa North 54.4 km/h 54.4 km/h 36 % 0 mm 499.0 W/m2 CLR
13:27 -10.7 °C -19.1 °C 34533.8 hPa North 69.8 km/h 69.8 km/h 35 % 0 mm 492.0 W/m2 CLR
13:32 -11 °C -19.6 °C 34520.3 hPa North 65.5 km/h 65.5 km/h 34 % 0 mm 490.0 W/m2 CLR
13:37 -10.7 °C -19.5 °C 34520.3 hPa NNW 65.5 km/h 65.5 km/h 33 % 0 mm 489.0 W/m2 CLR
13:42 -10.7 °C -19.3 °C 34520.3 hPa North 74.5 km/h 74.5 km/h 34 % 0 mm 482.0 W/m2 CLR
13:47 -10.7 °C -19.5 °C 34520.3 hPa North 77.4 km/h 77.4 km/h 33 % 0 mm 480.0 W/m2 CLR
13:52 -10.7 °C -19.8 °C 34520.3 hPa NW 68.6 km/h 68.6 km/h 32 % 0 mm 475.0 W/m2 CLR
13:57 -10.7 °C -19.8 °C 34520.3 hPa NNW 68.6 km/h 68.6 km/h 32 % 0 mm 469.0 W/m2 CLR
14:02 -10.7 °C -19.5 °C 34520.3 hPa NNW 68.6 km/h 68.6 km/h 33 % 0 mm 466.0 W/m2 CLR
14:07 -10.4 °C -19 °C 34510.1 hPa North 54.4 km/h 54.4 km/h 34 % 0 mm 461.0 W/m2 CLR
14:12 -10.4 °C -19.5 °C 34510.1 hPa North 59.5 km/h 59.5 km/h 32 % 0 mm 454.0 W/m2 CLR
14:17 -10.7 °C -19.3 °C 34510.1 hPa NW 68.6 km/h 68.6 km/h 34 % 0 mm 443.0 W/m2 CLR
14:22 -10.7 °C -19.1 °C 34510.1 hPa NW 65.5 km/h 65.5 km/h 35 % 0 mm 439.0 W/m2 CLR
14:27 -10.7 °C -19.8 °C 34510.1 hPa North 77.7 km/h 77.7 km/h 32 % 0 mm 432.0 W/m2 CLR
14:32 -10.7 °C -19.9 °C 34510.1 hPa North 68.6 km/h 68.6 km/h 31 % 0 mm 422.0 W/m2 CLR
14:37 -10.7 °C -19.8 °C 34510.1 hPa NNW 49.2 km/h 49.2 km/h 32 % 0 mm 415.0 W/m2 CLR
14:42 -10.7 °C -19.9 °C 34510.1 hPa North 68.6 km/h 68.6 km/h 31 % 0 mm 406.0 W/m2 CLR
14:47 -10.7 °C -20.2 °C 34510.1 hPa NNW 77.4 km/h 77.4 km/h 30 % 0 mm 396.0 W/m2 CLR
14:52 -10.7 °C -20.2 °C 34510.1 hPa North 59.5 km/h 59.5 km/h 30 % 0 mm 388.0 W/m2 CLR
14:57 -10.7 °C -20.2 °C 34510.1 hPa North 68.6 km/h 68.6 km/h 30 % 0 mm 381.0 W/m2 CLR
15:02 -10.7 °C -19.9 °C 34510.1 hPa North 53.6 km/h 53.6 km/h 31 % 0 mm 369.0 W/m2 CLR
15:12 -10.7 °C -19.9 °C 34520.3 hPa North 62.6 km/h 62.6 km/h 31 % 0 mm 348.0 W/m2 CLR
15:17 -10.7 °C -19.9 °C 34520.3 hPa North 62.6 km/h 62.6 km/h 31 % 0 mm 338.0 W/m2 CLR
15:22 -10.7 °C -19.8 °C 34520.3 hPa NNW 71.5 km/h 71.5 km/h 32 % 0 mm 325.0 W/m2 CLR
15:27 -10.7 °C -19.8 °C 34520.3 hPa NNW 69.8 km/h 69.8 km/h 32 % 0 mm 313.0 W/m2 CLR
15:32 -11 °C -20 °C 34520.3 hPa NNW 50.7 km/h 50.7 km/h 32 % 0 mm 304.0 W/m2 CLR
15:37 -11 °C -19.8 °C 34520.3 hPa NNW 56.6 km/h 56.6 km/h 33 % 0 mm 292.0 W/m2 CLR
15:42 -11 °C -19.8 °C 34520.3 hPa NW 65.5 km/h 65.5 km/h 33 % 0 mm 279.0 W/m2 CLR
15:47 -11 °C -19.8 °C 34520.3 hPa NNW 56.6 km/h 56.6 km/h 33 % 0 mm 265.0 W/m2 CLR
15:52 -11 °C -19.8 °C 34533.8 hPa NNW 50.7 km/h 50.7 km/h 33 % 0 mm 251.0 W/m2 CLR
15:57 -11 °C -19.8 °C 34533.8 hPa NNW 56.6 km/h 56.6 km/h 33 % 0 mm 236.0 W/m2 CLR
16:02 -11.3 °C -19.8 °C 34533.8 hPa NW 74.5 km/h 74.5 km/h 34 % 0 mm 223.0 W/m2 CLR
16:07 -11.3 °C -20.1 °C 34533.8 hPa NNW 68.6 km/h 68.6 km/h 33 % 0 mm 207.0 W/m2 CLR
16:13 -11.3 °C -20.1 °C 34533.8 hPa North 59.5 km/h 59.5 km/h 33 % 0 mm 190.0 W/m2 CLR
16:18 -11.3 °C -20.1 °C 34533.8 hPa North 47.6 km/h 47.6 km/h 33 % 0 mm 174.0 W/m2 CLR
16:23 -11.6 °C -20.3 °C 34533.8 hPa NW 56.6 km/h 56.6 km/h 33 % 0 mm 158.0 W/m2 CLR
16:28 -11.6 °C -20.3 °C 34533.8 hPa NNW 57 km/h 57 km/h 33 % 0 mm 144.0 W/m2 CLR
16:33 -11.6 °C -20.3 °C 34533.8 hPa NW 62.6 km/h 62.6 km/h 33 % 0 mm 128.0 W/m2 CLR
16:38 -11.6 °C -20.1 °C 34533.8 hPa NW 65.5 km/h 65.5 km/h 34 % 0 mm 113.0 W/m2 CLR
16:43 -11.9 °C -20.4 °C 34533.8 hPa NNW 54.4 km/h 54.4 km/h 34 % 0 mm 98.0 W/m2 CLR
16:48 -11.9 °C -20.4 °C 34544 hPa NNW 77.4 km/h 77.4 km/h 34 % 0 mm 84.0 W/m2 FEW
16:53 -11.9 °C -20.4 °C 34544 hPa NNW 57 km/h 57 km/h 34 % 0 mm 72.0 W/m2 FEW
16:58 -11.9 °C -20.2 °C 34544 hPa North 50.7 km/h 50.7 km/h 35 % 0 mm 58.0 W/m2 SCT
17:03 -11.9 °C -20.2 °C 34544 hPa NW 62.6 km/h 62.6 km/h 35 % 0 mm 42.0 W/m2 SCT
17:08 -12.2 °C -20.2 °C 34554.1 hPa NNW 80.5 km/h 80.5 km/h 36 % 0 mm 35.0 W/m2 BKN
17:13 -12.2 °C -20.1 °C 34554.1 hPa NNW 68.6 km/h 68.6 km/h 37 % 0 mm 26.0 W/m2 BKN
17:18 -12.2 °C -20.1 °C 34554.1 hPa NNW 50.7 km/h 50.7 km/h 37 % 0 mm 19.0 W/m2 BKN
17:23 -12.6 °C -20.1 °C 34554.1 hPa North 68.6 km/h 68.6 km/h 38 % 0 mm 14.0 W/m2 BKN
17:28 -12.6 °C -20.1 °C 34544 hPa NNW 57 km/h 57 km/h 38 % 0 mm 12.0 W/m2 BKN
17:33 -12.6 °C -19.9 °C 34544 hPa NNW 62.6 km/h 62.6 km/h 39 % 0 mm 9.0 W/m2 BKN
17:38 -12.6 °C -19.9 °C 34544 hPa NNW 65.5 km/h 65.5 km/h 39 % 0 mm 7.0 W/m2 BKN
17:43 -12.6 °C -19.7 °C 34554.1 hPa NNW 69.8 km/h 69.8 km/h 40 % 0 mm 5.0 W/m2 OVC
17:48 -12.6 °C -19.6 °C 34554.1 hPa NW 56.6 km/h 56.6 km/h 41 % 0 mm 0.0 W/m2 OVC
17:53 -12.8 °C -19.8 °C 34567.7 hPa NW 47.6 km/h 47.6 km/h 41 % 0 mm 0.0 W/m2 OVC
17:58 -12.8 °C -19.8 °C 34567.7 hPa NW 68.6 km/h 68.6 km/h 41 % 0 mm 0.0 W/m2 CLR
18:03 -12.8 °C -19.6 °C 34567.7 hPa NNW 65.5 km/h 65.5 km/h 42 % 0 mm 0.0 W/m2 CLR
18:08 -12.8 °C -19.6 °C 34567.7 hPa North 67.3 km/h 67.3 km/h 42 % 0 mm 0.0 W/m2 CLR
18:13 -12.8 °C -19.6 °C 34577.8 hPa NW 53.6 km/h 53.6 km/h 42 % 0 mm 0.0 W/m2 CLR
18:18 -12.8 °C -19.6 °C 34577.8 hPa NW 47.6 km/h 47.6 km/h 42 % 0 mm 0.0 W/m2 CLR
18:23 -13.2 °C -19.8 °C 34577.8 hPa NW 65.5 km/h 65.5 km/h 43 % 0 mm 0.0 W/m2 CLR
18:28 -13.2 °C -19.8 °C 34591.4 hPa NNW 65.5 km/h 65.5 km/h 43 % 0 mm 0.0 W/m2 CLR
18:33 -13.2 °C -19.8 °C 34591.4 hPa NNW 50.7 km/h 50.7 km/h 43 % 0 mm 0.0 W/m2 CLR
18:38 -13.2 °C -19.6 °C 34591.4 hPa WNW 50.7 km/h 50.7 km/h 44 % 0 mm 0.0 W/m2 CLR
18:39 -13.2 °C -19.4 °C 34591.4 hPa NW 56.6 km/h 56.6 km/h 45 % 0 mm 0.0 W/m2 CLR
18:44 -13.2 °C -19.1 °C 34591.4 hPa NW 59.5 km/h 59.5 km/h 47 % 0 mm 0.0 W/m2 CLR
18:49 -13.2 °C -18.9 °C 34591.4 hPa NW 50.7 km/h 50.7 km/h 48 % 0 mm 0.0 W/m2 CLR
18:54 -13.2 °C -18.9 °C 34591.4 hPa NW 68.6 km/h 68.6 km/h 48 % 0 mm 0.0 W/m2 CLR
18:59 -13.2 °C -18.8 °C 34591.4 hPa NW 50.7 km/h 50.7 km/h 49 % 0 mm 0.0 W/m2 CLR
19:04 -13.4 °C -19.1 °C 34601.5 hPa NW 50.7 km/h 50.7 km/h 49 % 0 mm 0.0 W/m2 CLR
19:14 -13.4 °C -19.1 °C 34601.5 hPa NW 59.5 km/h 59.5 km/h 49 % 0 mm 0.0 W/m2 CLR
19:19 -13.4 °C -19.1 °C 34601.5 hPa NW 65.5 km/h 65.5 km/h 49 % 0 mm 0.0 W/m2 CLR
19:24 -13.4 °C -18.9 °C 34601.5 hPa WNW 59.5 km/h 59.5 km/h 50 % 0 mm 0.0 W/m2 CLR
19:29 -13.4 °C -18.9 °C 34611.7 hPa NW 50.7 km/h 50.7 km/h 50 % 0 mm 0.0 W/m2 CLR
19:34 -13.4 °C -18.7 °C 34611.7 hPa WNW 56.6 km/h 56.6 km/h 51 % 0 mm 0.0 W/m2 CLR
19:39 -13.8 °C -19.1 °C 34611.7 hPa WNW 50.7 km/h 50.7 km/h 51 % 0 mm 0.0 W/m2 CLR
19:44 -13.8 °C -19.1 °C 34611.7 hPa NW 57 km/h 57 km/h 51 % 0 mm 0.0 W/m2 CLR
19:49 -13.8 °C -18.9 °C 34611.7 hPa NW 65.5 km/h 65.5 km/h 52 % 0 mm 0.0 W/m2 CLR
19:54 -13.8 °C -18.9 °C 34611.7 hPa NW 47.6 km/h 47.6 km/h 52 % 0 mm 0.0 W/m2 CLR
19:59 -13.8 °C -18.7 °C 34611.7 hPa NW 59.5 km/h 59.5 km/h 53 % 0 mm 0.0 W/m2 CLR
20:04 -13.8 °C -18.7 °C 34611.7 hPa NNW 50.7 km/h 50.7 km/h 53 % 0 mm 0.0 W/m2 CLR
20:09 -13.8 °C -18.7 °C 34611.7 hPa NNW 59.5 km/h 59.5 km/h 53 % 0 mm 0.0 W/m2 CLR
20:14 -14.1 °C -18.9 °C 34611.7 hPa NW 47.6 km/h 47.6 km/h 54 % 0 mm 0.0 W/m2 CLR
20:19 -14.1 °C -18.9 °C 34601.5 hPa NW 59.5 km/h 59.5 km/h 54 % 0 mm 0.0 W/m2 CLR
20:24 -14.1 °C -18.7 °C 34601.5 hPa NW 65.5 km/h 65.5 km/h 55 % 0 mm 0.0 W/m2 CLR
20:29 -14.1 °C -18.7 °C 34601.5 hPa NNW 62.6 km/h 62.6 km/h 55 % 0 mm 0.0 W/m2 CLR
20:34 -14.1 °C -18.7 °C 34601.5 hPa NW 53.6 km/h 53.6 km/h 55 % 0 mm 0.0 W/m2 CLR
20:39 -14.1 °C -18.7 °C 34591.4 hPa NNW 89.3 km/h 89.3 km/h 55 % 0 mm 0.0 W/m2 CLR
20:44 -14.1 °C -18.7 °C 34591.4 hPa NW 62.1 km/h 62.1 km/h 55 % 0 mm 0.0 W/m2 CLR
20:49 -14.1 °C -18.7 °C 34591.4 hPa NW 59.5 km/h 59.5 km/h 55 % 0 mm 0.0 W/m2 CLR
20:50 -14.1 °C -18.7 °C 34591.4 hPa NW 59.5 km/h 59.5 km/h 55 % 0 mm 0.0 W/m2 CLR
20:55 -14.1 °C -18.7 °C 34591.4 hPa NNW 71.5 km/h 71.5 km/h 55 % 0 mm 0.0 W/m2 CLR
21:00 -14.1 °C -18.6 °C 34591.4 hPa NW 50.7 km/h 50.7 km/h 56 % 0 mm 0.0 W/m2 CLR
21:05 -14.1 °C -18.6 °C 34591.4 hPa WNW 50.7 km/h 50.7 km/h 56 % 0 mm 0.0 W/m2 CLR
21:10 -14.1 °C -18.5 °C 34591.4 hPa WNW 62.6 km/h 62.6 km/h 57 % 0 mm 0.0 W/m2 CLR
21:15 -14.1 °C -18.3 °C 34577.8 hPa NW 80.5 km/h 80.5 km/h 58 % 0 mm 0.0 W/m2 CLR
21:20 -14.1 °C -18.3 °C 34591.4 hPa NW 56.6 km/h 56.6 km/h 58 % 0 mm 0.0 W/m2 CLR
21:25 -14.1 °C -18.2 °C 34591.4 hPa NW 65.5 km/h 65.5 km/h 59 % 0 mm 0.0 W/m2 CLR
21:30 -14.1 °C -18.2 °C 34591.4 hPa NW 56.6 km/h 56.6 km/h 59 % 0 mm 0.0 W/m2 CLR
21:40 -14.4 °C -18.4 °C 34591.4 hPa NNW 56.6 km/h 56.6 km/h 60 % 0 mm 0.0 W/m2 CLR
21:45 -14.4 °C -18.2 °C 34591.4 hPa NW 65.5 km/h 65.5 km/h 61 % 0 mm 0.0 W/m2 CLR
21:50 -14.4 °C -18.2 °C 34601.5 hPa NW 50.7 km/h 50.7 km/h 61 % 0 mm 0.0 W/m2 CLR
21:55 -14.4 °C -18.2 °C 34601.5 hPa NNW 51.8 km/h 51.8 km/h 61 % 0 mm 0.0 W/m2 CLR
22:00 -14.4 °C -18.2 °C 34601.5 hPa WNW 62.1 km/h 62.1 km/h 61 % 0 mm 0.0 W/m2 CLR
22:05 -14.4 °C -18.1 °C 34601.5 hPa NW 53.6 km/h 53.6 km/h 62 % 0 mm 0.0 W/m2 CLR
22:10 -14.4 °C -18.1 °C 34601.5 hPa North 41.4 km/h 41.4 km/h 62 % 0 mm 0.0 W/m2 CLR
22:15 -14.4 °C -18.1 °C 34601.5 hPa NW 47.6 km/h 47.6 km/h 62 % 0 mm 0.0 W/m2 CLR
22:20 -14.4 °C -18.1 °C 34611.7 hPa NW 50.7 km/h 50.7 km/h 62 % 0 mm 0.0 W/m2 CLR
22:25 -14.4 °C -18 °C 34611.7 hPa NNW 38.8 km/h 38.8 km/h 63 % 0 mm 0.0 W/m2 CLR
22:30 -14.4 °C -18 °C 34611.7 hPa NNW 50.7 km/h 50.7 km/h 63 % 0 mm 0.0 W/m2 CLR
22:35 -14.4 °C -18 °C 34611.7 hPa WNW 38.8 km/h 38.8 km/h 63 % 0 mm 0.0 W/m2 CLR
22:40 -14.4 °C -18 °C 34625.2 hPa NW 47.6 km/h 47.6 km/h 63 % 0 mm 0.0 W/m2 CLR
22:45 -14.4 °C -18 °C 34625.2 hPa NW 29.8 km/h 29.8 km/h 63 % 0 mm 0.0 W/m2 CLR
22:50 -14.4 °C -18 °C 34625.2 hPa WNW 35.7 km/h 35.7 km/h 63 % 0 mm 0.0 W/m2 CLR
22:51 -14.4 °C -18 °C 34625.2 hPa WNW 35.7 km/h 35.7 km/h 63 % 0 mm 0.0 W/m2 CLR
22:56 -14.4 °C -18 °C 34611.7 hPa WNW 29.8 km/h 29.8 km/h 63 % 0 mm 0.0 W/m2 CLR
23:01 -14.4 °C -18 °C 34625.2 hPa WNW 47.6 km/h 47.6 km/h 63 % 0 mm 0.0 W/m2 CLR
23:06 -14.4 °C -18 °C 34625.2 hPa NW 41.7 km/h 41.7 km/h 63 % 0 mm 0.0 W/m2 CLR
23:11 -14.4 °C -18 °C 34625.2 hPa NW 29.8 km/h 29.8 km/h 63 % 0 mm 0.0 W/m2 CLR
23:16 -14.4 °C -18 °C 34625.2 hPa WNW 47.6 km/h 47.6 km/h 63 % 0 mm 0.0 W/m2 CLR
23:21 -14.4 °C -18 °C 34625.2 hPa NW 50.7 km/h 50.7 km/h 63 % 0 mm 0.0 W/m2 CLR
23:26 -14.4 °C -18 °C 34625.2 hPa NW 32.8 km/h 32.8 km/h 63 % 0 mm 0.0 W/m2 CLR
23:31 -14.4 °C -18 °C 34611.7 hPa NW 35.7 km/h 35.7 km/h 63 % 0 mm 0.0 W/m2 CLR
23:36 -14.4 °C -18 °C 34625.2 hPa WNW 49.2 km/h 49.2 km/h 63 % 0 mm 0.0 W/m2 CLR
23:41 -14.4 °C -18 °C 34625.2 hPa NW 41.7 km/h 41.7 km/h 63 % 0 mm 0.0 W/m2 CLR
23:46 -14.4 °C -18 °C 34625.2 hPa NW 51.8 km/h 51.8 km/h 63 % 0 mm 0.0 W/m2 CLR
23:51 -14.4 °C -18 °C 34625.2 hPa NW 44.7 km/h 44.7 km/h 63 % 0 mm 0.0 W/m2 CLR
23:56 -14.4 °C -18 °C 34625.2 hPa NW 44.7 km/h 44.7 km/h 63 % 0 mm 0.0 W/m2 CLR
Lo Temps de Massalio
Compliments of Weather Underground - 1.25 mb